Echo, Alabama
Current Conditions -  °F | °C
As of 1:53 AM on Monday 26 Jan 2015 (Local Time) from KDHN Reporting Station
Clear Clear  
Wind Chill: 44°   Ceiling: Unl
Heat Index: 48°   Visibility: 10mi
Dew Point: 42°   Wind: 8mph
Humidity: 80%   Direction: 280°W
Pressure: 29.88"   Gusts: NA
Location:  31.4499°N, 85.3271°W
Report Text: KDHN 260753Z AUTO 28007KT 10SM CLR 09/06 A2988 RMK AO2 SLP115 T00890056
Loading
Personal Weather Stations






























Interactive Weather Map New forecast layout! Learn more

10-Day Weather Forecast

Advertisements
Track Severe Weather on mobile